Time;durP1;ratioP1;P1;durP2;ratioP2;P2;SDS_P1;SDS_P2;PMS_P1;PMS_P2;Temp;Humidity;BMP_temperature;BMP_pressure;BME280_temperature;BME280_humidity;BME280_pressure;Samples;Min_cycle;Max_cycle;Signal;HPM_P1;HPM_P2
2023/01/18 00:01:02;;;;;;;2.95;1.00;;;30.40;90.90;;;;;;5114967;28;20370;-80
2023/01/18 00:03:32;;;;;;;4.32;1.10;;;30.30;90.70;;;;;;5113544;28;20766;-78
2023/01/18 00:06:03;;;;;;;3.60;0.90;;;30.40;89.70;;;;;;5115791;28;20695;-81
2023/01/18 00:08:32;;;;;;;3.75;0.95;;;30.30;89.50;;;;;;5115474;28;20367;-80
2023/01/18 00:11:11;;;;;;;3.55;0.90;;;30.00;89.00;;;;;;5114906;28;20922;-80
2023/01/18 00:13:39;;;;;;;4.03;1.10;;;29.90;88.60;;;;;;5114600;28;20399;-80
2023/01/18 00:16:13;;;;;;;2.28;0.80;;;29.60;89.50;;;;;;5114743;28;20367;-81
2023/01/18 00:18:40;;;;;;;3.35;0.90;;;29.40;89.00;;;;;;5115005;28;20748;-80
2023/01/18 00:21:09;;;;;;;3.33;1.00;;;29.00;90.10;;;;;;5114567;28;20877;-78
2023/01/18 00:23:37;;;;;;;3.33;1.00;;;28.90;90.80;;;;;;5114412;28;20874;-79
2023/01/18 00:26:10;;;;;;;2.65;0.93;;;28.80;90.70;;;;;;5114549;28;20421;-81
2023/01/18 00:28:38;;;;;;;2.50;0.70;;;28.50;90.50;;;;;;5115165;28;20398;-79
2023/01/18 00:31:13;;;;;;;2.92;0.80;;;28.50;90.90;;;;;;5114474;28;20366;-80
2023/01/18 00:33:43;;;;;;;4.90;1.00;;;28.60;91.00;;;;;;5113143;28;20391;-82
2023/01/18 00:36:11;;;;;;;2.22;0.70;;;28.70;90.70;;;;;;5114365;28;20377;-79
2023/01/18 00:38:38;;;;;;;2.17;0.80;;;29.10;90.60;;;;;;5114349;28;20377;-81
2023/01/18 00:41:05;;;;;;;2.83;0.90;;;29.50;89.40;;;;;;5113127;28;20378;-79
2023/01/18 00:43:38;;;;;;;1.73;0.68;;;29.80;86.60;;;;;;5114179;28;20406;-83
2023/01/18 00:46:07;;;;;;;1.60;0.68;;;30.00;84.00;;;;;;5114414;28;20420;-84
2023/01/18 00:48:35;;;;;;;1.13;0.60;;;30.30;83.20;;;;;;5114184;28;20382;-80
2023/01/18 00:51:03;;;;;;;0.90;0.60;;;31.00;81.80;;;;;;5114205;28;20374;-80
2023/01/18 00:53:30;;;;;;;1.20;0.70;;;31.50;79.60;;;;;;5114090;28;20394;-81
2023/01/18 00:55:57;;;;;;;2.07;0.60;;;31.60;79.30;;;;;;5113142;28;20466;-80
2023/01/18 00:58:24;;;;;;;1.43;0.70;;;31.80;76.90;;;;;;5113950;28;20747;-79
2023/01/18 01:00:52;;;;;;;2.00;0.85;;;31.70;76.00;;;;;;5113966;28;20397;-80
2023/01/18 01:03:20;;;;;;;2.00;0.80;;;31.70;77.20;;;;;;5113778;28;20399;-78
2023/01/18 01:08:32;;;;;;;1.87;0.60;;;31.60;75.80;;;;;;5114429;28;20362;-80
2023/01/18 01:11:11;;;;;;;2.40;0.80;;;31.70;73.10;;;;;;5113783;27;20367;-79
2023/01/18 01:27:23;;;;;;;3.53;0.80;;;32.60;69.40;;;;;;5113757;28;20841;-80
2023/01/18 01:29:51;;;;;;;1.70;0.80;;;33.00;68.30;;;;;;5113414;28;20386;-79
2023/01/18 01:32:18;;;;;;;1.67;0.80;;;33.00;65.20;;;;;;5113272;28;20374;-80
2023/01/18 01:34:45;;;;;;;1.45;0.77;;;32.70;65.70;;;;;;5113430;28;20366;-80
2023/01/18 01:37:12;;;;;;;2.08;0.70;;;32.80;64.20;;;;;;5113547;28;20407;-80
2023/01/18 01:39:39;;;;;;;1.40;0.70;;;33.20;64.80;;;;;;5113214;28;20378;-80
2023/01/18 01:42:08;;;;;;;1.33;0.70;;;33.40;64.00;;;;;;5113054;28;20481;-80
2023/01/18 01:44:44;;;;;;;3.20;0.80;;;33.60;61.30;;;;;;5112399;28;20400;-80
2023/01/18 01:47:33;;;;;;;2.63;0.90;;;33.80;62.30;;;;;;5113129;28;20386;-79
2023/01/18 01:50:07;;;;;;;3.00;0.80;;;34.00;61.10;;;;;;5113027;28;20371;-81
2023/01/18 01:52:36;;;;;;;2.95;1.00;;;34.00;62.20;;;;;;5095291;28;20428;-81
2023/01/18 01:55:32;;;;;;;2.03;1.00;;;34.20;61.00;;;;;;5112895;28;20402;-80
2023/01/18 01:58:02;;;;;;;3.75;1.50;;;34.50;59.60;;;;;;5111958;28;20374;-80
2023/01/18 02:00:30;;;;;;;3.00;1.30;;;34.50;59.50;;;;;;5112861;28;20375;-80
2023/01/18 02:03:03;;;;;;;4.32;1.20;;;34.50;59.60;;;;;;5112751;28;20390;-80
2023/01/18 02:05:32;;;;;;;2.38;1.45;;;34.80;60.40;;;;;;5113180;28;20725;-80
2023/01/18 02:08:01;;;;;;;3.38;1.52;;;35.60;58.20;;;;;;5112686;27;20359;-80
2023/01/18 02:10:29;;;;;;;2.70;1.50;;;36.40;57.30;;;;;;5112680;28;20865;-81
2023/01/18 02:12:57;;;;;;;2.63;1.30;;;36.30;55.90;;;;;;5112643;28;20366;-80
2023/01/18 02:15:34;;;;;;;2.50;1.50;;;36.10;55.60;;;;;;5112751;28;20413;-81
2023/01/18 02:18:25;;;;;;;2.47;1.60;;;36.20;55.60;;;;;;5112623;28;20365;-80
2023/01/18 02:20:55;;;;;;;2.60;1.67;;;36.30;54.70;;;;;;5111299;28;20413;-81
2023/01/18 02:24:09;;;;;;;2.58;1.80;;;36.70;54.10;;;;;;5112393;28;20402;-80
2023/01/18 02:26:59;;;;;;;2.50;1.70;;;36.90;53.70;;;;;;5070403;28;20363;-80
2023/01/18 02:29:38;;;;;;;3.88;1.90;;;37.60;53.60;;;;;;5069736;28;20405;-79
2023/01/18 02:32:38;;;;;;;7.95;2.20;;;37.80;52.90;;;;;;5069638;28;20410;-80
2023/01/18 02:35:27;;;;;;;3.20;2.00;;;37.50;51.90;;;;;;5052993;28;20381;-81
2023/01/18 02:38:09;;;;;;;4.03;2.38;;;37.70;52.20;;;;;;5070002;28;20373;-81
2023/01/18 02:40:56;;;;;;;6.07;3.97;;;37.80;52.70;;;;;;5069766;28;20374;-81
2023/01/18 02:46:35;;;;;;;5.13;4.00;;;37.70;51.80;;;;;;5070317;28;20902;-79
2023/01/18 02:49:31;;;;;;;4.45;3.45;;;37.60;52.80;;;;;;5069666;28;20370;-81
2023/01/18 02:52:06;;;;;;;4.20;2.55;;;38.20;51.00;;;;;;5070222;28;20374;-79
2023/01/18 02:54:36;;;;;;;4.27;3.40;;;38.50;51.30;;;;;;5069539;28;20459;-80
2023/01/18 02:57:14;;;;;;;4.32;3.00;;;39.10;50.80;;;;;;5069798;28;20374;-79
2023/01/18 02:59:50;;;;;;;3.85;3.28;;;39.50;49.40;;;;;;5069598;28;20735;-79
2023/01/18 03:02:21;;;;;;;3.92;2.42;;;39.20;49.70;;;;;;5083572;28;20394;-81
2023/01/18 03:04:56;;;;;;;4.55;2.22;;;39.50;49.10;;;;;;5112076;28;20377;-79
2023/01/18 03:07:27;;;;;;;4.30;2.20;;;39.40;48.20;;;;;;5112428;28;20435;-82
2023/01/18 03:09:56;;;;;;;5.55;2.70;;;39.20;49.80;;;;;;5112097;28;20377;-80
2023/01/18 03:12:51;;;;;;;3.38;2.28;;;39.80;49.30;;;;;;5112073;28;20375;-81
2023/01/18 03:15:29;;;;;;;2.90;2.20;;;40.10;49.10;;;;;;5112031;28;20366;-81
2023/01/18 03:18:05;;;;;;;4.38;1.80;;;40.70;48.30;;;;;;5111988;28;20380;-81
2023/01/18 03:20:39;;;;;;;3.55;3.00;;;41.40;46.90;;;;;;5115182;28;20455;-80
2023/01/18 03:26:07;;;;;;;6.63;3.20;;;40.70;46.60;;;;;;5116106;28;20439;-79
2023/01/18 03:35:06;;;;;;;2.78;2.17;;;40.70;46.30;;;;;;5116177;28;20529;-81
2023/01/18 03:37:44;;;;;;;4.10;2.20;;;40.60;46.90;;;;;;5115526;28;20401;-81
2023/01/18 03:40:19;;;;;;;5.30;3.10;;;40.60;47.20;;;;;;5115542;28;20433;-80
2023/01/18 03:43:08;;;;;;;6.15;3.50;;;40.40;46.30;;;;;;5115234;28;20747;-81
2023/01/18 03:45:47;;;;;;;6.72;3.67;;;39.80;47.20;;;;;;5115349;28;20436;-80
2023/01/18 03:48:15;;;;;;;5.97;3.30;;;39.40;48.60;;;;;;5115357;28;20402;-81
2023/01/18 03:51:01;;;;;;;6.07;3.42;;;39.60;47.30;;;;;;5115229;28;20363;-81
2023/01/18 03:53:33;;;;;;;4.50;3.45;;;39.80;47.90;;;;;;5115864;28;20885;-81
2023/01/18 17:28:20;;;;;;;15.52;14.00;;;21.00;99.90;;;;;;5109069;27;20358;-83
2023/01/18 17:30:49;;;;;;;14.88;12.20;;;21.10;99.90;;;;;;5091238;28;20424;-83
2023/01/18 17:33:21;;;;;;;14.57;11.00;;;21.10;99.90;;;;;;5092983;28;20380;-84
2023/01/18 17:35:49;;;;;;;17.47;12.93;;;21.10;99.90;;;;;;5092275;28;20385;-83
2023/01/18 17:38:16;;;;;;;11.93;10.70;;;21.00;99.90;;;;;;5095388;28;20390;-84
2023/01/18 17:40:43;;;;;;;13.43;11.02;;;21.10;99.90;;;;;;5093239;28;20929;-85
2023/01/18 17:43:17;;;;;;;12.10;10.85;;;21.10;99.90;;;;;;5102022;28;20388;-83
2023/01/18 17:45:45;;;;;;;15.75;12.70;;;21.10;99.90;;;;;;5096146;28;20381;-84
2023/01/18 17:48:12;;;;;;;13.40;11.98;;;21.00;99.90;;;;;;5094512;28;20426;-84
2023/01/18 17:50:42;;;;;;;11.93;10.73;;;20.90;99.90;;;;;;5094864;28;20377;-83
2023/01/18 17:53:09;;;;;;;14.55;10.63;;;21.00;99.90;;;;;;5088531;28;20389;-84
2023/01/18 17:55:39;;;;;;;14.65;10.95;;;21.00;99.90;;;;;;5088109;28;20899;-83
2023/01/18 17:58:06;;;;;;;16.23;11.18;;;21.00;99.90;;;;;;5087253;28;20387;-84
2023/01/18 18:00:33;;;;;;;13.57;9.85;;;21.00;99.90;;;;;;5098871;28;20787;-83
2023/01/18 18:03:00;;;;;;;13.05;9.60;;;21.00;99.90;;;;;;5093582;28;20409;-83
2023/01/18 18:05:27;;;;;;;15.18;11.18;;;21.00;99.90;;;;;;5099433;28;20730;-84
2023/01/18 18:07:54;;;;;;;12.82;11.23;;;20.90;99.90;;;;;;5105313;28;20512;-84
2023/01/18 18:10:21;;;;;;;12.77;11.13;;;20.90;99.90;;;;;;5104156;28;20372;-84
2023/01/18 18:12:48;;;;;;;15.35;11.38;;;21.00;99.90;;;;;;5108103;28;20777;-84
2023/01/18 18:15:15;;;;;;;12.13;10.93;;;21.10;99.90;;;;;;5098963;28;20404;-84
2023/01/18 18:17:42;;;;;;;13.70;11.30;;;21.10;99.90;;;;;;5104112;28;20376;-84
2023/01/18 18:20:10;;;;;;;14.45;10.68;;;21.10;99.90;;;;;;5106972;28;20410;-84
2023/01/18 18:22:37;;;;;;;14.85;12.10;;;21.10;99.90;;;;;;5106178;28;20803;-83
2023/01/18 18:25:05;;;;;;;10.27;9.17;;;21.10;99.90;;;;;;5092560;28;20382;-82
2023/01/18 18:27:33;;;;;;;15.63;10.93;;;21.10;99.90;;;;;;5092653;28;20513;-83
2023/01/18 18:30:00;;;;;;;13.32;10.57;;;21.10;99.90;;;;;;5092750;28;20379;-85
2023/01/18 18:32:27;;;;;;;10.98;9.73;;;21.20;99.90;;;;;;5106879;28;20376;-85
2023/01/18 18:34:54;;;;;;;10.95;9.50;;;21.20;99.90;;;;;;5092622;28;20377;-87
2023/01/18 18:37:22;;;;;;;9.90;8.90;;;21.20;99.90;;;;;;5096329;28;20393;-85
2023/01/18 18:39:49;;;;;;;9.00;8.10;;;21.30;99.90;;;;;;5078606;28;20875;-87
2023/01/18 18:42:16;;;;;;;10.50;9.40;;;21.20;99.90;;;;;;5093856;28;20400;-84
2023/01/18 18:44:43;;;;;;;12.52;11.23;;;21.20;99.90;;;;;;5086399;28;20403;-82
2023/01/18 18:47:12;;;;;;;14.90;12.45;;;21.10;99.90;;;;;;5081270;28;20406;-83
2023/01/18 18:49:39;;;;;;;19.38;17.27;;;21.10;99.90;;;;;;5076251;28;20390;-83
2023/01/18 18:52:06;;;;;;;8.35;6.50;;;21.10;99.90;;;;;;5074033;28;20405;-90
2023/01/18 18:54:33;;;;;;;5.32;3.80;;;20.50;99.90;;;;;;5074448;28;20378;-85
2023/01/18 18:57:02;;;;;;;6.05;4.20;;;20.00;99.90;;;;;;5074570;28;20910;-88
2023/01/18 18:59:29;;;;;;;6.10;4.90;;;19.60;99.90;;;;;;5079636;28;20471;-87
2023/01/18 19:01:56;;;;;;;5.68;4.78;;;19.40;99.90;;;;;;5075157;28;20864;-87
2023/01/18 19:04:25;;;;;;;5.88;4.75;;;19.20;99.90;;;;;;5078622;28;20379;-89
2023/01/18 19:06:54;;;;;;;5.97;4.60;;;19.20;99.90;;;;;;5076523;28;20390;-84
2023/01/18 19:09:21;;;;;;;6.30;4.85;;;19.00;99.90;;;;;;5086540;28;20385;-86
2023/01/18 19:11:48;;;;;;;7.57;4.20;;;18.90;99.90;;;;;;5081086;28;20436;-85
2023/01/18 19:14:15;;;;;;;5.45;3.28;;;18.90;99.90;;;;;;5088712;28;20376;-84
2023/01/18 19:16:42;;;;;;;7.30;3.35;;;18.80;99.90;;;;;;5082533;28;20363;-87
2023/01/18 19:19:09;;;;;;;7.13;3.40;;;18.80;99.90;;;;;;5092540;28;20376;-86
2023/01/18 19:21:37;;;;;;;6.70;3.40;;;18.80;99.90;;;;;;5078973;28;20544;-88
2023/01/18 19:24:04;;;;;;;6.68;3.60;;;18.70;99.90;;;;;;5081967;28;20364;-86
2023/01/18 19:26:31;;;;;;;5.25;2.78;;;18.70;99.90;;;;;;5091654;28;20401;-87
2023/01/18 19:28:58;;;;;;;5.43;3.33;;;18.70;99.90;;;;;;5077434;28;20385;-89
2023/01/18 19:31:25;;;;;;;5.32;3.10;;;18.70;99.90;;;;;;5079706;28;20378;-83
2023/01/18 19:33:55;;;;;;;7.60;2.60;;;18.60;99.90;;;;;;5092152;28;20505;-83
2023/01/18 19:36:22;;;;;;;5.68;2.30;;;18.60;99.90;;;;;;5078448;28;20425;-84
2023/01/18 19:38:49;;;;;;;5.63;2.20;;;18.50;99.90;;;;;;5092407;28;20762;-86
2023/01/18 19:41:17;;;;;;;6.97;2.20;;;18.50;99.90;;;;;;5090104;28;20426;-81
2023/01/18 19:43:47;;;;;;;5.88;2.05;;;18.50;99.90;;;;;;5092803;28;20493;-85
2023/01/18 19:46:14;;;;;;;5.78;2.00;;;18.50;99.90;;;;;;5088100;28;20459;-82
2023/01/18 19:48:41;;;;;;;6.55;2.20;;;18.60;99.90;;;;;;5083979;28;20850;-85
2023/01/18 19:51:10;;;;;;;6.82;2.15;;;18.60;99.90;;;;;;5087092;28;20378;-84
2023/01/18 19:53:39;;;;;;;6.57;2.05;;;18.60;99.90;;;;;;5073223;28;20396;-83
2023/01/18 19:56:07;;;;;;;7.07;2.10;;;18.50;99.90;;;;;;5073168;28;20463;-85
2023/01/18 19:58:40;;;;;;;7.93;1.98;;;18.50;99.90;;;;;;5073282;28;20469;-84
2023/01/18 20:01:09;;;;;;;7.97;2.45;;;18.50;99.90;;;;;;5073035;28;20393;-82
2023/01/18 20:03:36;;;;;;;6.25;2.10;;;18.40;99.90;;;;;;5073021;28;20374;-80
2023/01/18 20:06:11;;;;;;;8.25;2.20;;;18.50;99.90;;;;;;5060555;28;20362;-82
2023/01/18 20:08:38;;;;;;;7.18;2.00;;;18.60;99.90;;;;;;5073694;28;20355;-81
2023/01/18 20:11:10;;;;;;;7.70;2.03;;;18.50;99.90;;;;;;5072874;28;20393;-81
2023/01/18 20:13:38;;;;;;;8.48;2.50;;;18.40;99.90;;;;;;5073430;28;20376;-81
2023/01/18 20:16:06;;;;;;;9.15;2.47;;;18.40;99.90;;;;;;5073272;28;20386;-79
2023/01/18 20:18:34;;;;;;;8.70;2.85;;;18.30;99.90;;;;;;5073233;28;20413;-81
2023/01/18 20:21:20;;;;;;;8.27;2.70;;;18.30;99.90;;;;;;5072960;28;20880;-81
2023/01/18 20:23:47;;;;;;;8.27;2.33;;;18.40;99.90;;;;;;5072601;28;20378;-80
2023/01/18 20:26:18;;;;;;;8.25;2.40;;;18.40;99.90;;;;;;5079306;28;20463;-80
2023/01/18 20:28:47;;;;;;;7.18;2.08;;;18.40;99.90;;;;;;5061245;28;20768;-79
2023/01/18 20:31:14;;;;;;;9.32;2.17;;;18.50;99.90;;;;;;5075347;28;20916;-79
2023/01/18 20:33:41;;;;;;;15.85;3.47;;;18.50;99.90;;;;;;5073516;28;20382;-81
2023/01/18 20:36:08;;;;;;;17.25;3.40;;;18.60;99.90;;;;;;5074109;28;20377;-80
2023/01/18 20:38:36;;;;;;;17.48;4.10;;;18.50;99.90;;;;;;5073142;28;20378;-79
2023/01/18 20:41:05;;;;;;;9.45;2.63;;;18.50;99.90;;;;;;5074248;28;20382;-79
2023/01/18 20:43:32;;;;;;;6.90;2.20;;;18.40;99.90;;;;;;5073113;28;20386;-81
2023/01/18 20:46:07;;;;;;;6.55;2.10;;;18.20;99.90;;;;;;5073654;28;20374;-80
2023/01/18 20:48:35;;;;;;;4.63;1.88;;;18.20;99.90;;;;;;5071728;28;20394;-79
2023/01/18 20:51:03;;;;;;;5.47;2.00;;;18.20;99.90;;;;;;5071180;28;20382;-79
2023/01/18 20:53:32;;;;;;;5.40;1.90;;;18.30;99.90;;;;;;5071768;28;20370;-79
2023/01/18 20:56:12;;;;;;;5.40;2.00;;;18.40;99.90;;;;;;5085067;28;20408;-79
2023/01/18 20:58:39;;;;;;;6.82;2.10;;;18.50;99.90;;;;;;5071805;28;20405;-80
2023/01/18 21:01:14;;;;;;;4.78;1.92;;;18.50;99.90;;;;;;5084942;28;20438;-79
2023/01/18 21:03:46;;;;;;;6.68;2.20;;;18.40;99.90;;;;;;5071352;28;20880;-78
2023/01/18 21:06:14;;;;;;;6.30;2.03;;;18.40;99.90;;;;;;5079622;28;20405;-79
2023/01/18 21:08:41;;;;;;;5.32;2.10;;;18.30;99.90;;;;;;5086034;28;21065;-80
2023/01/18 21:11:13;;;;;;;5.00;2.10;;;18.40;99.90;;;;;;5082386;28;20428;-78
2023/01/18 21:13:39;;;;;;;4.13;1.92;;;18.30;99.90;;;;;;5071438;28;20386;-79
2023/01/18 21:16:06;;;;;;;7.05;2.17;;;18.30;99.90;;;;;;5071572;28;20382;-79
2023/01/18 21:18:36;;;;;;;6.68;2.60;;;18.30;99.90;;;;;;5071561;28;20401;-79
2023/01/18 21:21:03;;;;;;;9.88;3.13;;;18.40;99.90;;;;;;5054075;28;20382;-79
2023/01/18 21:23:36;;;;;;;9.60;3.40;;;18.30;99.90;;;;;;5071603;28;20903;-79
2023/01/18 21:26:03;;;;;;;9.73;3.10;;;18.20;99.90;;;;;;5071808;28;20370;-80
2023/01/18 21:28:30;;;;;;;11.07;3.33;;;18.20;99.90;;;;;;5072263;28;20392;-78
2023/01/18 21:30:57;;;;;;;11.13;3.40;;;18.20;99.90;;;;;;5072565;28;20699;-80
2023/01/18 21:33:25;;;;;;;9.07;3.20;;;18.10;99.90;;;;;;5073327;28;20392;-78
2023/01/18 21:35:53;;;;;;;8.30;3.05;;;18.20;99.90;;;;;;5079667;28;20392;-79
2023/01/18 21:38:25;;;;;;;6.10;2.63;;;18.20;99.90;;;;;;5073202;28;20378;-79
2023/01/18 21:40:52;;;;;;;6.65;2.60;;;18.20;99.90;;;;;;5072222;28;20374;-79
2023/01/18 21:46:10;;;;;;;4.47;2.20;;;18.20;99.90;;;;;;5068781;28;21119;-81
2023/01/18 21:48:37;;;;;;;3.67;1.80;;;18.30;99.90;;;;;;5071328;28;20806;-80
2023/01/18 21:54:13;;;;;;;3.42;1.50;;;18.30;99.90;;;;;;5091351;28;20417;-80
2023/01/18 21:56:41;;;;;;;3.53;1.30;;;18.20;99.90;;;;;;5061913;28;20405;-81
2023/01/18 21:59:08;;;;;;;3.25;1.33;;;18.20;99.90;;;;;;5074425;28;20418;-80
2023/01/18 22:01:39;;;;;;;2.58;1.20;;;18.20;99.90;;;;;;5083828;28;20446;-79
2023/01/18 22:41:21;;;;;;;3.17;0.90;;;18.20;99.90;;;;;;5106700;27;20375;-77
2023/01/18 22:43:48;;;;;;;2.65;0.90;;;17.70;99.90;;;;;;5086631;28;20397;-79
2023/01/18 22:46:17;;;;;;;5.53;1.30;;;17.70;99.90;;;;;;5087801;28;20414;-79
2023/01/18 22:48:45;;;;;;;4.60;1.20;;;17.70;99.90;;;;;;5090486;28;20385;-78
2023/01/18 22:51:15;;;;;;;4.40;1.20;;;17.80;99.90;;;;;;5088406;28;20396;-79
2023/01/18 22:53:43;;;;;;;5.67;1.53;;;17.90;99.90;;;;;;5089792;28;20386;-78
2023/01/18 22:56:14;;;;;;;8.68;1.80;;;17.90;99.90;;;;;;5088859;28;20419;-81
2023/01/18 22:58:41;;;;;;;7.88;1.80;;;17.90;99.90;;;;;;5098139;28;20382;-77
2023/01/18 23:01:20;;;;;;;6.13;1.90;;;17.90;99.90;;;;;;5093752;28;20405;-79
2023/01/18 23:03:49;;;;;;;7.57;1.90;;;17.90;99.90;;;;;;5087713;28;20456;-78
2023/01/18 23:06:16;;;;;;;7.60;2.00;;;17.90;99.90;;;;;;5090970;28;20740;-79
2023/01/18 23:08:44;;;;;;;10.27;2.10;;;17.80;99.90;;;;;;5092089;28;20392;-79
2023/01/18 23:11:14;;;;;;;10.07;2.20;;;17.80;99.90;;;;;;5086978;28;20435;-78
2023/01/18 23:13:43;;;;;;;9.40;2.25;;;17.80;99.90;;;;;;5084655;28;20385;-76
2023/01/18 23:18:59;;;;;;;9.18;2.58;;;17.80;99.90;;;;;;5084258;28;20431;-79
2023/01/18 23:21:26;;;;;;;12.43;3.27;;;17.80;99.90;;;;;;5089289;28;20393;-80
2023/01/18 23:23:52;;;;;;;14.05;3.63;;;17.70;99.90;;;;;;5090801;28;20387;-78
2023/01/18 23:26:19;;;;;;;16.23;3.70;;;17.70;99.90;;;;;;5095163;28;20385;-81
2023/01/18 23:28:46;;;;;;;16.02;4.10;;;17.60;99.90;;;;;;5088136;28;20935;-78
2023/01/18 23:31:16;;;;;;;16.38;5.20;;;17.60;99.90;;;;;;5087704;28;20431;-84
2023/01/18 23:33:43;;;;;;;19.80;5.50;;;17.60;99.90;;;;;;5087934;28;20468;-84
2023/01/18 23:36:11;;;;;;;19.60;5.30;;;17.60;99.90;;;;;;5087808;28;20453;-84
2023/01/18 23:55:09;;;;;;;20.77;6.47;;;17.70;99.90;;;;;;5074608;28;20385;-84
2023/01/18 23:57:36;;;;;;;19.70;5.38;;;17.60;99.90;;;;;;5073996;28;20374;-83
